sensor_id;sensor_type;location;lat;lon;timestamp;P1;durP1;ratioP1;P2;durP2;ratioP2
23800;SDS011;12081;48.614;10.226;2023-04-24T00:02:05;2.87;;;1.23;;
23800;SDS011;12081;48.614;10.226;2023-04-24T00:04:50;1.43;;;0.90;;
23800;SDS011;12081;48.614;10.226;2023-04-24T00:07:35;1.80;;;1.00;;
23800;SDS011;12081;48.614;10.226;2023-04-24T00:10:19;1.90;;;1.20;;
23800;SDS011;12081;48.614;10.226;2023-04-24T00:13:03;2.93;;;0.93;;
23800;SDS011;12081;48.614;10.226;2023-04-24T00:15:48;1.80;;;1.17;;
23800;SDS011;12081;48.614;10.226;2023-04-24T00:18:33;3.93;;;1.53;;
23800;SDS011;12081;48.614;10.226;2023-04-24T00:21:17;1.20;;;0.90;;
23800;SDS011;12081;48.614;10.226;2023-04-24T00:24:01;1.20;;;1.00;;
23800;SDS011;12081;48.614;10.226;2023-04-24T00:26:45;2.53;;;0.90;;
23800;SDS011;12081;48.614;10.226;2023-04-24T00:29:30;1.90;;;1.20;;
23800;SDS011;12081;48.614;10.226;2023-04-24T00:32:15;2.40;;;1.17;;
23800;SDS011;12081;48.614;10.226;2023-04-24T00:34:59;1.20;;;0.90;;
23800;SDS011;12081;48.614;10.226;2023-04-24T00:37:43;2.30;;;1.30;;
23800;SDS011;12081;48.614;10.226;2023-04-24T00:40:28;1.70;;;1.40;;
23800;SDS011;12081;48.614;10.226;2023-04-24T00:43:13;1.30;;;1.20;;
23800;SDS011;12081;48.614;10.226;2023-04-24T00:45:57;2.03;;;1.00;;
23800;SDS011;12081;48.614;10.226;2023-04-24T00:48:43;2.30;;;1.47;;
23800;SDS011;12081;48.614;10.226;2023-04-24T00:51:27;1.60;;;1.30;;
23800;SDS011;12081;48.614;10.226;2023-04-24T00:54:12;2.00;;;1.40;;
23800;SDS011;12081;48.614;10.226;2023-04-24T00:56:56;1.50;;;1.20;;
23800;SDS011;12081;48.614;10.226;2023-04-24T00:59:41;3.63;;;1.70;;
23800;SDS011;12081;48.614;10.226;2023-04-24T01:02:26;2.10;;;1.20;;
23800;SDS011;12081;48.614;10.226;2023-04-24T01:05:11;1.30;;;1.00;;
23800;SDS011;12081;48.614;10.226;2023-04-24T01:07:56;2.47;;;1.30;;
23800;SDS011;12081;48.614;10.226;2023-04-24T01:10:41;1.10;;;1.00;;
23800;SDS011;12081;48.614;10.226;2023-04-24T01:13:28;1.30;;;0.93;;
23800;SDS011;12081;48.614;10.226;2023-04-24T01:16:13;1.70;;;1.03;;
23800;SDS011;12081;48.614;10.226;2023-04-24T01:18:58;2.37;;;1.10;;
23800;SDS011;12081;48.614;10.226;2023-04-24T01:21:42;2.87;;;1.50;;
23800;SDS011;12081;48.614;10.226;2023-04-24T01:24:27;1.83;;;0.90;;
23800;SDS011;12081;48.614;10.226;2023-04-24T01:27:13;1.23;;;1.03;;
23800;SDS011;12081;48.614;10.226;2023-04-24T01:37:07;1.73;;;0.90;;
23800;SDS011;12081;48.614;10.226;2023-04-24T01:39:51;1.53;;;0.90;;
23800;SDS011;12081;48.614;10.226;2023-04-24T01:42:35;1.60;;;1.10;;
23800;SDS011;12081;48.614;10.226;2023-04-24T01:45:20;1.67;;;1.03;;
23800;SDS011;12081;48.614;10.226;2023-04-24T01:48:04;2.83;;;1.03;;
23800;SDS011;12081;48.614;10.226;2023-04-24T01:50:49;2.47;;;1.30;;
23800;SDS011;12081;48.614;10.226;2023-04-24T01:53:33;2.57;;;1.20;;
23800;SDS011;12081;48.614;10.226;2023-04-24T01:56:18;1.37;;;0.93;;
23800;SDS011;12081;48.614;10.226;2023-04-24T01:59:05;2.40;;;1.13;;
23800;SDS011;12081;48.614;10.226;2023-04-24T02:01:51;1.53;;;1.00;;
23800;SDS011;12081;48.614;10.226;2023-04-24T02:04:35;1.63;;;1.10;;
23800;SDS011;12081;48.614;10.226;2023-04-24T02:07:20;2.27;;;1.10;;
23800;SDS011;12081;48.614;10.226;2023-04-24T02:10:04;3.37;;;1.40;;
23800;SDS011;12081;48.614;10.226;2023-04-24T02:12:49;1.30;;;1.20;;
23800;SDS011;12081;48.614;10.226;2023-04-24T02:15:32;2.50;;;1.30;;
23800;SDS011;12081;48.614;10.226;2023-04-24T02:18:17;2.83;;;1.23;;
23800;SDS011;12081;48.614;10.226;2023-04-24T02:21:02;2.17;;;1.50;;
23800;SDS011;12081;48.614;10.226;2023-04-24T02:23:46;3.10;;;1.23;;
23800;SDS011;12081;48.614;10.226;2023-04-24T02:26:30;1.63;;;1.13;;
23800;SDS011;12081;48.614;10.226;2023-04-24T02:29:15;2.30;;;1.50;;
23800;SDS011;12081;48.614;10.226;2023-04-24T02:32:00;1.73;;;1.40;;
23800;SDS011;12081;48.614;10.226;2023-04-24T02:34:44;4.43;;;1.43;;
23800;SDS011;12081;48.614;10.226;2023-04-24T02:37:29;1.83;;;1.63;;
23800;SDS011;12081;48.614;10.226;2023-04-24T02:40:14;3.27;;;1.80;;
23800;SDS011;12081;48.614;10.226;2023-04-24T02:42:58;4.47;;;1.87;;
23800;SDS011;12081;48.614;10.226;2023-04-24T02:45:42;2.70;;;1.97;;
23800;SDS011;12081;48.614;10.226;2023-04-24T04:13:08;4.40;;;1.90;;
23800;SDS011;12081;48.614;10.226;2023-04-24T04:15:53;4.13;;;2.30;;
23800;SDS011;12081;48.614;10.226;2023-04-24T05:01:11;4.97;;;3.07;;
23800;SDS011;12081;48.614;10.226;2023-04-24T05:03:56;3.40;;;3.07;;
23800;SDS011;12081;48.614;10.226;2023-04-24T05:06:40;5.80;;;3.20;;
23800;SDS011;12081;48.614;10.226;2023-04-24T05:09:26;4.80;;;3.27;;
23800;SDS011;12081;48.614;10.226;2023-04-24T05:12:12;3.83;;;3.43;;
23800;SDS011;12081;48.614;10.226;2023-04-24T05:14:56;3.90;;;3.50;;
23800;SDS011;12081;48.614;10.226;2023-04-24T05:17:40;4.50;;;3.60;;
23800;SDS011;12081;48.614;10.226;2023-04-24T05:20:25;3.77;;;3.40;;
23800;SDS011;12081;48.614;10.226;2023-04-24T05:23:09;5.47;;;3.60;;
23800;SDS011;12081;48.614;10.226;2023-04-24T05:25:55;5.77;;;4.17;;
23800;SDS011;12081;48.614;10.226;2023-04-24T05:28:40;6.23;;;3.87;;
23800;SDS011;12081;48.614;10.226;2023-04-24T05:31:24;3.90;;;3.50;;
23800;SDS011;12081;48.614;10.226;2023-04-24T05:34:09;6.10;;;3.97;;
23800;SDS011;12081;48.614;10.226;2023-04-24T05:36:53;5.20;;;3.77;;
23800;SDS011;12081;48.614;10.226;2023-04-24T05:39:38;4.67;;;3.40;;
23800;SDS011;12081;48.614;10.226;2023-04-24T05:42:24;4.33;;;3.60;;
23800;SDS011;12081;48.614;10.226;2023-04-24T05:45:08;5.63;;;3.80;;
23800;SDS011;12081;48.614;10.226;2023-04-24T05:47:58;4.20;;;3.83;;
23800;SDS011;12081;48.614;10.226;2023-04-24T05:50:42;4.93;;;3.63;;
23800;SDS011;12081;48.614;10.226;2023-04-24T05:53:26;5.30;;;3.60;;
23800;SDS011;12081;48.614;10.226;2023-04-24T05:56:10;4.47;;;3.53;;
23800;SDS011;12081;48.614;10.226;2023-04-24T05:58:55;5.83;;;3.33;;
23800;SDS011;12081;48.614;10.226;2023-04-24T06:01:39;4.00;;;2.93;;
23800;SDS011;12081;48.614;10.226;2023-04-24T06:04:24;4.67;;;4.00;;
23800;SDS011;12081;48.614;10.226;2023-04-24T06:07:10;7.07;;;6.07;;
23800;SDS011;12081;48.614;10.226;2023-04-24T06:09:54;4.37;;;3.67;;
23800;SDS011;12081;48.614;10.226;2023-04-24T06:12:38;2.87;;;2.53;;
23800;SDS011;12081;48.614;10.226;2023-04-24T06:15:22;2.50;;;1.03;;
23800;SDS011;12081;48.614;10.226;2023-04-24T06:18:07;4.27;;;1.20;;
23800;SDS011;12081;48.614;10.226;2023-04-24T06:20:53;2.93;;;1.23;;
23800;SDS011;12081;48.614;10.226;2023-04-24T06:23:38;2.13;;;1.20;;
23800;SDS011;12081;48.614;10.226;2023-04-24T06:26:23;2.87;;;1.50;;
23800;SDS011;12081;48.614;10.226;2023-04-24T06:29:10;1.33;;;1.20;;
23800;SDS011;12081;48.614;10.226;2023-04-24T06:31:54;1.57;;;1.30;;
23800;SDS011;12081;48.614;10.226;2023-04-24T06:34:38;2.03;;;1.13;;
23800;SDS011;12081;48.614;10.226;2023-04-24T06:37:22;2.90;;;1.10;;
23800;SDS011;12081;48.614;10.226;2023-04-24T06:40:06;2.07;;;1.30;;
23800;SDS011;12081;48.614;10.226;2023-04-24T06:42:51;3.37;;;1.30;;
23800;SDS011;12081;48.614;10.226;2023-04-24T06:45:35;1.80;;;1.20;;
23800;SDS011;12081;48.614;10.226;2023-04-24T06:48:19;3.37;;;1.33;;
23800;SDS011;12081;48.614;10.226;2023-04-24T06:51:03;2.37;;;1.10;;
23800;SDS011;12081;48.614;10.226;2023-04-24T06:53:47;2.20;;;1.20;;
23800;SDS011;12081;48.614;10.226;2023-04-24T06:56:31;1.13;;;0.87;;
23800;SDS011;12081;48.614;10.226;2023-04-24T06:59:17;1.60;;;0.90;;
23800;SDS011;12081;48.614;10.226;2023-04-24T07:02:02;1.23;;;0.87;;
23800;SDS011;12081;48.614;10.226;2023-04-24T07:04:46;3.87;;;1.33;;
23800;SDS011;12081;48.614;10.226;2023-04-24T07:07:31;1.90;;;1.20;;
23800;SDS011;12081;48.614;10.226;2023-04-24T07:10:15;3.53;;;1.07;;
23800;SDS011;12081;48.614;10.226;2023-04-24T07:12:59;1.70;;;1.20;;
23800;SDS011;12081;48.614;10.226;2023-04-24T07:15:44;2.67;;;1.57;;
23800;SDS011;12081;48.614;10.226;2023-04-24T07:18:29;1.87;;;1.07;;
23800;SDS011;12081;48.614;10.226;2023-04-24T07:21:13;2.03;;;1.20;;
23800;SDS011;12081;48.614;10.226;2023-04-24T07:23:58;1.47;;;1.13;;
23800;SDS011;12081;48.614;10.226;2023-04-24T07:26:42;3.27;;;1.50;;
23800;SDS011;12081;48.614;10.226;2023-04-24T07:29:27;2.43;;;1.20;;
23800;SDS011;12081;48.614;10.226;2023-04-24T07:32:11;1.83;;;1.10;;
23800;SDS011;12081;48.614;10.226;2023-04-24T07:34:56;1.40;;;1.20;;
23800;SDS011;12081;48.614;10.226;2023-04-24T07:37:40;3.10;;;1.13;;
23800;SDS011;12081;48.614;10.226;2023-04-24T07:40:29;1.73;;;1.20;;
23800;SDS011;12081;48.614;10.226;2023-04-24T07:43:13;2.13;;;0.90;;
23800;SDS011;12081;48.614;10.226;2023-04-24T07:45:57;1.10;;;1.00;;
23800;SDS011;12081;48.614;10.226;2023-04-24T07:48:41;2.40;;;1.10;;
23800;SDS011;12081;48.614;10.226;2023-04-24T07:51:25;6.10;;;4.63;;
23800;SDS011;12081;48.614;10.226;2023-04-24T07:54:12;5.20;;;1.77;;
23800;SDS011;12081;48.614;10.226;2023-04-24T07:56:56;8.47;;;4.63;;
23800;SDS011;12081;48.614;10.226;2023-04-24T07:59:41;1.57;;;1.20;;
23800;SDS011;12081;48.614;10.226;2023-04-24T08:02:25;2.73;;;1.10;;
23800;SDS011;12081;48.614;10.226;2023-04-24T08:05:10;1.93;;;1.23;;
23800;SDS011;12081;48.614;10.226;2023-04-24T08:07:55;1.83;;;1.10;;
23800;SDS011;12081;48.614;10.226;2023-04-24T08:10:39;4.23;;;1.20;;
23800;SDS011;12081;48.614;10.226;2023-04-24T08:13:24;2.70;;;0.90;;
23800;SDS011;12081;48.614;10.226;2023-04-24T08:16:08;2.10;;;1.07;;
23800;SDS011;12081;48.614;10.226;2023-04-24T08:18:52;2.13;;;0.83;;
23800;SDS011;12081;48.614;10.226;2023-04-24T08:21:36;1.30;;;0.80;;
23800;SDS011;12081;48.614;10.226;2023-04-24T08:24:21;1.43;;;1.13;;
23800;SDS011;12081;48.614;10.226;2023-04-24T08:27:06;2.73;;;1.07;;
23800;SDS011;12081;48.614;10.226;2023-04-24T08:29:50;2.23;;;1.10;;
23800;SDS011;12081;48.614;10.226;2023-04-24T08:32:34;3.73;;;1.20;;
23800;SDS011;12081;48.614;10.226;2023-04-24T08:35:19;4.33;;;1.10;;
23800;SDS011;12081;48.614;10.226;2023-04-24T08:38:03;3.63;;;0.93;;
23800;SDS011;12081;48.614;10.226;2023-04-24T08:40:48;0.93;;;0.80;;
23800;SDS011;12081;48.614;10.226;2023-04-24T08:43:33;1.93;;;0.87;;
23800;SDS011;12081;48.614;10.226;2023-04-24T08:46:19;1.77;;;1.30;;
23800;SDS011;12081;48.614;10.226;2023-04-24T08:49:04;1.43;;;1.03;;
23800;SDS011;12081;48.614;10.226;2023-04-24T08:51:48;1.10;;;0.80;;
23800;SDS011;12081;48.614;10.226;2023-04-24T08:54:34;1.47;;;0.90;;
23800;SDS011;12081;48.614;10.226;2023-04-24T08:57:18;1.70;;;1.10;;
23800;SDS011;12081;48.614;10.226;2023-04-24T09:00:03;1.57;;;0.80;;
23800;SDS011;12081;48.614;10.226;2023-04-24T09:02:49;2.33;;;1.13;;
23800;SDS011;12081;48.614;10.226;2023-04-24T09:05:34;2.10;;;0.93;;
23800;SDS011;12081;48.614;10.226;2023-04-24T09:08:18;2.07;;;1.13;;
23800;SDS011;12081;48.614;10.226;2023-04-24T09:11:03;1.53;;;0.87;;
23800;SDS011;12081;48.614;10.226;2023-04-24T09:13:48;1.67;;;0.70;;
23800;SDS011;12081;48.614;10.226;2023-04-24T09:16:32;0.87;;;0.80;;
23800;SDS011;12081;48.614;10.226;2023-04-24T09:19:17;1.30;;;0.80;;
23800;SDS011;12081;48.614;10.226;2023-04-24T09:22:05;1.57;;;0.80;;
23800;SDS011;12081;48.614;10.226;2023-04-24T09:24:59;1.13;;;0.80;;
23800;SDS011;12081;48.614;10.226;2023-04-24T09:27:53;1.40;;;0.70;;
23800;SDS011;12081;48.614;10.226;2023-04-24T09:30:38;2.70;;;0.80;;
23800;SDS011;12081;48.614;10.226;2023-04-24T09:33:22;1.50;;;0.70;;
23800;SDS011;12081;48.614;10.226;2023-04-24T09:36:06;1.77;;;0.80;;
23800;SDS011;12081;48.614;10.226;2023-04-24T09:38:53;1.10;;;0.70;;
23800;SDS011;12081;48.614;10.226;2023-04-24T09:44:34;1.40;;;0.90;;
23800;SDS011;12081;48.614;10.226;2023-04-24T09:47:18;1.87;;;1.00;;
23800;SDS011;12081;48.614;10.226;2023-04-24T09:50:35;1.20;;;1.00;;
23800;SDS011;12081;48.614;10.226;2023-04-24T09:53:15;0.80;;;0.80;;
23800;SDS011;12081;48.614;10.226;2023-04-24T09:56:06;1.53;;;1.10;;
23800;SDS011;12081;48.614;10.226;2023-04-24T09:58:52;2.27;;;0.70;;
23800;SDS011;12081;48.614;10.226;2023-04-24T10:01:36;1.43;;;0.80;;
23800;SDS011;12081;48.614;10.226;2023-04-24T10:04:22;2.40;;;0.70;;
23800;SDS011;12081;48.614;10.226;2023-04-24T10:07:08;1.17;;;0.60;;
23800;SDS011;12081;48.614;10.226;2023-04-24T10:09:54;2.17;;;0.90;;
23800;SDS011;12081;48.614;10.226;2023-04-24T10:12:39;2.17;;;0.73;;
23800;SDS011;12081;48.614;10.226;2023-04-24T10:15:23;1.30;;;0.80;;
23800;SDS011;12081;48.614;10.226;2023-04-24T10:18:10;2.07;;;0.70;;
23800;SDS011;12081;48.614;10.226;2023-04-24T10:20:54;0.80;;;0.70;;
23800;SDS011;12081;48.614;10.226;2023-04-24T10:23:41;1.97;;;0.70;;
23800;SDS011;12081;48.614;10.226;2023-04-24T10:26:25;1.27;;;0.67;;
23800;SDS011;12081;48.614;10.226;2023-04-24T10:29:11;1.97;;;0.97;;
23800;SDS011;12081;48.614;10.226;2023-04-24T10:31:56;0.70;;;0.60;;
23800;SDS011;12081;48.614;10.226;2023-04-24T10:34:40;1.20;;;0.77;;
23800;SDS011;12081;48.614;10.226;2023-04-24T10:37:25;1.63;;;0.87;;
23800;SDS011;12081;48.614;10.226;2023-04-24T10:40:10;3.40;;;1.30;;
23800;SDS011;12081;48.614;10.226;2023-04-24T10:42:55;1.63;;;0.80;;
23800;SDS011;12081;48.614;10.226;2023-04-24T10:45:40;1.47;;;0.90;;
23800;SDS011;12081;48.614;10.226;2023-04-24T10:48:26;1.63;;;0.80;;
23800;SDS011;12081;48.614;10.226;2023-04-24T10:51:11;2.13;;;1.00;;
23800;SDS011;12081;48.614;10.226;2023-04-24T10:53:57;1.50;;;0.80;;
23800;SDS011;12081;48.614;10.226;2023-04-24T10:56:42;1.83;;;0.80;;
23800;SDS011;12081;48.614;10.226;2023-04-24T10:59:27;1.60;;;0.80;;
23800;SDS011;12081;48.614;10.226;2023-04-24T11:02:18;2.37;;;1.10;;
23800;SDS011;12081;48.614;10.226;2023-04-24T11:05:19;5.20;;;0.80;;
23800;SDS011;12081;48.614;10.226;2023-04-24T11:08:10;1.13;;;0.80;;
23800;SDS011;12081;48.614;10.226;2023-04-24T11:10:59;1.53;;;0.93;;
23800;SDS011;12081;48.614;10.226;2023-04-24T11:16:43;1.73;;;1.00;;
23800;SDS011;12081;48.614;10.226;2023-04-24T11:19:28;2.30;;;0.90;;
23800;SDS011;12081;48.614;10.226;2023-04-24T11:22:16;1.00;;;0.87;;
23800;SDS011;12081;48.614;10.226;2023-04-24T11:25:04;2.30;;;0.80;;
23800;SDS011;12081;48.614;10.226;2023-04-24T11:27:50;1.03;;;0.70;;
23800;SDS011;12081;48.614;10.226;2023-04-24T11:30:46;2.03;;;0.77;;
23800;SDS011;12081;48.614;10.226;2023-04-24T11:33:30;2.20;;;1.00;;
23800;SDS011;12081;48.614;10.226;2023-04-24T11:36:15;3.00;;;0.70;;
23800;SDS011;12081;48.614;10.226;2023-04-24T11:38:59;1.20;;;0.80;;
23800;SDS011;12081;48.614;10.226;2023-04-24T11:41:44;2.10;;;0.90;;
23800;SDS011;12081;48.614;10.226;2023-04-24T11:44:28;1.10;;;0.80;;
23800;SDS011;12081;48.614;10.226;2023-04-24T11:47:14;2.30;;;0.70;;
23800;SDS011;12081;48.614;10.226;2023-04-24T11:49:58;1.50;;;0.70;;
23800;SDS011;12081;48.614;10.226;2023-04-24T11:52:44;2.63;;;0.83;;
23800;SDS011;12081;48.614;10.226;2023-04-24T11:55:30;4.90;;;0.90;;
23800;SDS011;12081;48.614;10.226;2023-04-24T11:58:14;2.67;;;0.70;;
23800;SDS011;12081;48.614;10.226;2023-04-24T12:00:59;1.10;;;0.73;;
23800;SDS011;12081;48.614;10.226;2023-04-24T12:03:50;3.80;;;0.73;;
23800;SDS011;12081;48.614;10.226;2023-04-24T12:06:59;2.93;;;1.07;;
23800;SDS011;12081;48.614;10.226;2023-04-24T12:09:45;0.73;;;0.67;;
23800;SDS011;12081;48.614;10.226;2023-04-24T12:12:31;0.90;;;0.60;;
23800;SDS011;12081;48.614;10.226;2023-04-24T12:15:16;1.53;;;1.00;;
23800;SDS011;12081;48.614;10.226;2023-04-24T12:18:01;1.80;;;0.67;;
23800;SDS011;12081;48.614;10.226;2023-04-24T12:20:47;1.83;;;0.70;;
23800;SDS011;12081;48.614;10.226;2023-04-24T12:23:35;1.07;;;0.60;;
23800;SDS011;12081;48.614;10.226;2023-04-24T12:26:19;1.10;;;0.80;;
23800;SDS011;12081;48.614;10.226;2023-04-24T12:29:06;0.80;;;0.70;;
23800;SDS011;12081;48.614;10.226;2023-04-24T12:31:51;0.77;;;0.70;;
23800;SDS011;12081;48.614;10.226;2023-04-24T12:34:36;1.23;;;0.57;;
23800;SDS011;12081;48.614;10.226;2023-04-24T12:37:22;1.00;;;0.63;;
23800;SDS011;12081;48.614;10.226;2023-04-24T12:40:09;1.63;;;0.80;;
23800;SDS011;12081;48.614;10.226;2023-04-24T12:42:55;1.20;;;0.60;;
23800;SDS011;12081;48.614;10.226;2023-04-24T12:45:39;1.90;;;0.50;;
23800;SDS011;12081;48.614;10.226;2023-04-24T12:48:27;0.60;;;0.60;;
23800;SDS011;12081;48.614;10.226;2023-04-24T12:51:12;1.30;;;0.50;;
23800;SDS011;12081;48.614;10.226;2023-04-24T12:53:56;1.53;;;0.73;;
23800;SDS011;12081;48.614;10.226;2023-04-24T12:56:40;1.33;;;0.70;;
23800;SDS011;12081;48.614;10.226;2023-04-24T12:59:24;1.30;;;0.90;;
23800;SDS011;12081;48.614;10.226;2023-04-24T13:02:08;0.80;;;0.60;;
23800;SDS011;12081;48.614;10.226;2023-04-24T13:04:53;0.77;;;0.60;;
23800;SDS011;12081;48.614;10.226;2023-04-24T13:07:38;1.00;;;0.67;;
23800;SDS011;12081;48.614;10.226;2023-04-24T13:10:23;1.57;;;0.70;;
23800;SDS011;12081;48.614;10.226;2023-04-24T13:13:08;1.07;;;0.60;;
23800;SDS011;12081;48.614;10.226;2023-04-24T13:15:52;1.00;;;0.80;;
23800;SDS011;12081;48.614;10.226;2023-04-24T13:18:36;1.37;;;0.60;;
23800;SDS011;12081;48.614;10.226;2023-04-24T13:21:20;0.97;;;0.80;;
23800;SDS011;12081;48.614;10.226;2023-04-24T13:24:04;3.53;;;0.60;;
23800;SDS011;12081;48.614;10.226;2023-04-24T13:26:51;1.40;;;0.70;;
23800;SDS011;12081;48.614;10.226;2023-04-24T13:29:36;3.07;;;0.70;;
23800;SDS011;12081;48.614;10.226;2023-04-24T13:32:20;1.03;;;0.60;;
23800;SDS011;12081;48.614;10.226;2023-04-24T13:35:05;1.87;;;0.87;;
23800;SDS011;12081;48.614;10.226;2023-04-24T13:37:49;1.10;;;0.60;;
23800;SDS011;12081;48.614;10.226;2023-04-24T13:40:34;1.27;;;0.70;;
23800;SDS011;12081;48.614;10.226;2023-04-24T13:43:19;0.63;;;0.63;;
23800;SDS011;12081;48.614;10.226;2023-04-24T13:46:03;0.90;;;0.70;;
23800;SDS011;12081;48.614;10.226;2023-04-24T13:48:47;0.93;;;0.70;;
23800;SDS011;12081;48.614;10.226;2023-04-24T13:51:31;0.70;;;0.70;;
23800;SDS011;12081;48.614;10.226;2023-04-24T13:54:16;1.00;;;0.70;;
23800;SDS011;12081;48.614;10.226;2023-04-24T13:57:00;1.20;;;0.70;;
23800;SDS011;12081;48.614;10.226;2023-04-24T13:59:46;0.90;;;0.60;;
23800;SDS011;12081;48.614;10.226;2023-04-24T14:02:30;0.90;;;0.80;;
23800;SDS011;12081;48.614;10.226;2023-04-24T14:05:14;2.43;;;0.90;;
23800;SDS011;12081;48.614;10.226;2023-04-24T14:07:58;0.60;;;0.60;;
23800;SDS011;12081;48.614;10.226;2023-04-24T14:10:43;0.80;;;0.60;;
23800;SDS011;12081;48.614;10.226;2023-04-24T14:13:27;1.07;;;0.67;;
23800;SDS011;12081;48.614;10.226;2023-04-24T14:16:12;1.17;;;0.73;;
23800;SDS011;12081;48.614;10.226;2023-04-24T14:18:57;0.90;;;0.80;;
23800;SDS011;12081;48.614;10.226;2023-04-24T14:21:42;2.17;;;0.70;;
23800;SDS011;12081;48.614;10.226;2023-04-24T14:24:27;4.13;;;0.93;;
23800;SDS011;12081;48.614;10.226;2023-04-24T14:27:11;1.10;;;0.70;;
23800;SDS011;12081;48.614;10.226;2023-04-24T14:29:55;0.60;;;0.53;;
23800;SDS011;12081;48.614;10.226;2023-04-24T14:32:40;3.80;;;0.87;;
23800;SDS011;12081;48.614;10.226;2023-04-24T14:35:24;1.53;;;1.00;;
23800;SDS011;12081;48.614;10.226;2023-04-24T14:38:09;2.10;;;0.70;;
23800;SDS011;12081;48.614;10.226;2023-04-24T14:40:53;1.43;;;1.10;;
23800;SDS011;12081;48.614;10.226;2023-04-24T14:43:38;1.17;;;0.63;;
23800;SDS011;12081;48.614;10.226;2023-04-24T14:46:22;1.30;;;0.80;;
23800;SDS011;12081;48.614;10.226;2023-04-24T14:49:06;2.37;;;0.70;;
23800;SDS011;12081;48.614;10.226;2023-04-24T14:51:53;2.63;;;0.80;;
23800;SDS011;12081;48.614;10.226;2023-04-24T14:54:37;1.43;;;0.70;;
23800;SDS011;12081;48.614;10.226;2023-04-24T14:57:22;2.30;;;1.03;;
23800;SDS011;12081;48.614;10.226;2023-04-24T15:00:07;1.63;;;0.93;;
23800;SDS011;12081;48.614;10.226;2023-04-24T15:02:52;1.10;;;0.80;;
23800;SDS011;12081;48.614;10.226;2023-04-24T15:05:38;1.70;;;0.80;;
23800;SDS011;12081;48.614;10.226;2023-04-24T15:08:22;1.53;;;0.70;;
23800;SDS011;12081;48.614;10.226;2023-04-24T15:11:07;3.03;;;1.27;;
23800;SDS011;12081;48.614;10.226;2023-04-24T15:13:53;1.43;;;0.80;;
23800;SDS011;12081;48.614;10.226;2023-04-24T15:16:37;1.33;;;1.00;;
23800;SDS011;12081;48.614;10.226;2023-04-24T15:19:21;2.03;;;1.27;;
23800;SDS011;12081;48.614;10.226;2023-04-24T15:22:05;3.97;;;1.20;;
23800;SDS011;12081;48.614;10.226;2023-04-24T15:24:49;1.63;;;1.07;;
23800;SDS011;12081;48.614;10.226;2023-04-24T15:27:43;1.40;;;1.10;;
23800;SDS011;12081;48.614;10.226;2023-04-24T15:30:28;1.70;;;0.87;;
23800;SDS011;12081;48.614;10.226;2023-04-24T15:33:13;1.10;;;1.00;;
23800;SDS011;12081;48.614;10.226;2023-04-24T15:35:57;2.03;;;1.10;;
23800;SDS011;12081;48.614;10.226;2023-04-24T15:38:42;4.97;;;1.20;;
23800;SDS011;12081;48.614;10.226;2023-04-24T15:41:27;2.70;;;1.00;;
23800;SDS011;12081;48.614;10.226;2023-04-24T15:44:11;1.10;;;0.97;;
23800;SDS011;12081;48.614;10.226;2023-04-24T15:46:55;1.20;;;1.10;;
23800;SDS011;12081;48.614;10.226;2023-04-24T15:49:39;3.00;;;1.33;;
23800;SDS011;12081;48.614;10.226;2023-04-24T15:52:24;3.10;;;1.30;;
23800;SDS011;12081;48.614;10.226;2023-04-24T15:55:09;1.37;;;0.97;;
23800;SDS011;12081;48.614;10.226;2023-04-24T15:57:53;1.73;;;0.90;;
23800;SDS011;12081;48.614;10.226;2023-04-24T16:00:38;1.10;;;1.00;;
23800;SDS011;12081;48.614;10.226;2023-04-24T16:03:23;1.70;;;1.40;;
23800;SDS011;12081;48.614;10.226;2023-04-24T16:06:07;2.10;;;1.13;;
23800;SDS011;12081;48.614;10.226;2023-04-24T16:08:51;2.37;;;1.40;;
23800;SDS011;12081;48.614;10.226;2023-04-24T16:11:35;2.30;;;1.60;;
23800;SDS011;12081;48.614;10.226;2023-04-24T16:14:20;2.07;;;1.20;;
23800;SDS011;12081;48.614;10.226;2023-04-24T16:17:04;1.90;;;1.40;;
23800;SDS011;12081;48.614;10.226;2023-04-24T16:19:49;2.20;;;1.60;;
23800;SDS011;12081;48.614;10.226;2023-04-24T16:22:33;2.17;;;1.50;;
23800;SDS011;12081;48.614;10.226;2023-04-24T16:25:18;2.00;;;1.20;;
23800;SDS011;12081;48.614;10.226;2023-04-24T16:28:02;3.93;;;2.70;;
23800;SDS011;12081;48.614;10.226;2023-04-24T16:30:47;2.20;;;1.40;;
23800;SDS011;12081;48.614;10.226;2023-04-24T16:33:31;2.83;;;1.47;;
23800;SDS011;12081;48.614;10.226;2023-04-24T16:36:15;2.97;;;1.40;;
23800;SDS011;12081;48.614;10.226;2023-04-24T16:39:00;2.47;;;1.40;;
23800;SDS011;12081;48.614;10.226;2023-04-24T16:41:47;1.23;;;1.13;;
23800;SDS011;12081;48.614;10.226;2023-04-24T16:44:32;2.93;;;1.60;;
23800;SDS011;12081;48.614;10.226;2023-04-24T16:47:16;2.57;;;1.50;;
23800;SDS011;12081;48.614;10.226;2023-04-24T16:50:01;1.73;;;1.37;;
23800;SDS011;12081;48.614;10.226;2023-04-24T16:52:45;2.27;;;1.40;;
23800;SDS011;12081;48.614;10.226;2023-04-24T16:55:29;1.83;;;1.47;;
23800;SDS011;12081;48.614;10.226;2023-04-24T16:58:13;2.10;;;1.20;;
23800;SDS011;12081;48.614;10.226;2023-04-24T17:00:58;1.50;;;1.10;;
23800;SDS011;12081;48.614;10.226;2023-04-24T17:03:42;1.30;;;1.17;;
23800;SDS011;12081;48.614;10.226;2023-04-24T17:06:26;2.37;;;1.30;;
23800;SDS011;12081;48.614;10.226;2023-04-24T17:09:10;2.63;;;1.23;;
23800;SDS011;12081;48.614;10.226;2023-04-24T17:12:00;2.73;;;1.57;;
23800;SDS011;12081;48.614;10.226;2023-04-24T17:14:45;2.60;;;1.70;;
23800;SDS011;12081;48.614;10.226;2023-04-24T17:17:29;2.83;;;1.50;;
23800;SDS011;12081;48.614;10.226;2023-04-24T17:20:14;1.37;;;1.23;;
23800;SDS011;12081;48.614;10.226;2023-04-24T17:22:58;2.93;;;1.60;;
23800;SDS011;12081;48.614;10.226;2023-04-24T17:25:42;1.80;;;1.20;;
23800;SDS011;12081;48.614;10.226;2023-04-24T17:28:30;1.60;;;0.90;;
23800;SDS011;12081;48.614;10.226;2023-04-24T17:31:15;3.40;;;1.30;;
23800;SDS011;12081;48.614;10.226;2023-04-24T17:33:59;2.50;;;1.10;;
23800;SDS011;12081;48.614;10.226;2023-04-24T17:36:44;1.40;;;0.90;;
23800;SDS011;12081;48.614;10.226;2023-04-24T17:39:28;2.00;;;1.00;;
23800;SDS011;12081;48.614;10.226;2023-04-24T17:42:12;1.37;;;1.27;;
23800;SDS011;12081;48.614;10.226;2023-04-24T17:44:56;1.60;;;1.37;;
23800;SDS011;12081;48.614;10.226;2023-04-24T17:47:41;1.37;;;1.10;;
23800;SDS011;12081;48.614;10.226;2023-04-24T17:50:25;3.13;;;1.40;;
23800;SDS011;12081;48.614;10.226;2023-04-24T17:53:09;1.47;;;1.27;;
23800;SDS011;12081;48.614;10.226;2023-04-24T17:55:53;2.13;;;1.07;;
23800;SDS011;12081;48.614;10.226;2023-04-24T17:58:41;1.90;;;1.50;;
23800;SDS011;12081;48.614;10.226;2023-04-24T18:01:26;2.10;;;1.17;;
23800;SDS011;12081;48.614;10.226;2023-04-24T18:04:11;1.03;;;0.93;;
23800;SDS011;12081;48.614;10.226;2023-04-24T18:06:56;1.20;;;1.10;;
23800;SDS011;12081;48.614;10.226;2023-04-24T18:09:40;2.50;;;1.20;;
23800;SDS011;12081;48.614;10.226;2023-04-24T18:12:25;1.83;;;1.00;;
23800;SDS011;12081;48.614;10.226;2023-04-24T18:15:09;1.63;;;1.47;;
23800;SDS011;12081;48.614;10.226;2023-04-24T18:17:54;3.63;;;1.63;;
23800;SDS011;12081;48.614;10.226;2023-04-24T18:20:38;2.47;;;1.60;;
23800;SDS011;12081;48.614;10.226;2023-04-24T18:23:22;8.47;;;5.03;;
23800;SDS011;12081;48.614;10.226;2023-04-24T18:26:07;2.43;;;2.03;;
23800;SDS011;12081;48.614;10.226;2023-04-24T18:28:51;2.40;;;1.60;;
23800;SDS011;12081;48.614;10.226;2023-04-24T18:31:35;3.40;;;1.70;;
23800;SDS011;12081;48.614;10.226;2023-04-24T18:34:19;1.47;;;1.37;;
23800;SDS011;12081;48.614;10.226;2023-04-24T18:37:03;2.43;;;1.17;;
23800;SDS011;12081;48.614;10.226;2023-04-24T18:39:48;5.93;;;1.50;;